createdAt,value
2023-04-27T00:00:11.296Z,98407.72
2023-04-27T00:02:14.245Z,98412.88
2023-04-27T00:04:17.382Z,98409.34
2023-04-27T00:06:20.306Z,98406.66
2023-04-27T00:08:23.203Z,98410.22
2023-04-27T00:10:26.078Z,98398.84
2023-04-27T00:12:28.890Z,98407.47
2023-04-27T00:14:31.585Z,98398.69
2023-04-27T00:16:34.482Z,98408.56
2023-04-27T00:18:37.272Z,98409.78
2023-04-27T00:20:40.437Z,98412.16
2023-04-27T00:22:43.257Z,98412.97
2023-04-27T00:24:46.224Z,98408.63
2023-04-27T00:26:49.039Z,98417.66
2023-04-27T00:28:51.912Z,98427.53
2023-04-27T00:30:55.060Z,98422.81
2023-04-27T00:32:57.856Z,98420.53
2023-04-27T00:35:00.634Z,98434.63
2023-04-27T00:37:05.665Z,98429.91
2023-04-27T00:39:09.185Z,98424.34
2023-04-27T00:41:11.829Z,98437.03
2023-04-27T00:43:15.147Z,98439.00
2023-04-27T00:45:17.827Z,98443.34
2023-04-27T00:47:20.729Z,98439.84
2023-04-27T00:49:24.411Z,98439.84
2023-04-27T00:51:30.324Z,98443.78
2023-04-27T00:53:33.608Z,98450.88
2023-04-27T00:55:36.351Z,98448.50
2023-04-27T00:57:39.157Z,98454.78
2023-04-27T00:59:41.983Z,98454.34
2023-04-27T01:01:46.376Z,98450.00
2023-04-27T01:03:49.543Z,98444.84
2023-04-27T01:05:52.411Z,98453.13
2023-04-27T01:07:55.858Z,98446.81
2023-04-27T01:09:58.664Z,98451.53
2023-04-27T01:12:01.581Z,98452.31
2023-04-27T01:14:06.284Z,98470.09
2023-04-27T01:16:09.716Z,98463.78
2023-04-27T01:18:12.917Z,98457.91
2023-04-27T01:20:15.859Z,98457.09
2023-04-27T01:22:18.657Z,98453.22
2023-04-27T01:24:21.940Z,98458.97
2023-04-27T01:26:24.822Z,98472.03
2023-04-27T01:28:27.526Z,98470.44
2023-04-27T01:30:30.429Z,98470.44
2023-04-27T01:32:33.196Z,98470.09
2023-04-27T01:34:36.169Z,98470.09
2023-04-27T01:36:39.446Z,98472.03
2023-04-27T01:38:42.552Z,98474.34
2023-04-27T01:40:45.307Z,98465.63
2023-04-27T01:42:48.255Z,98475.94
2023-04-27T01:44:51.018Z,98464.91
2023-04-27T01:46:53.854Z,98468.13
2023-04-27T01:48:56.559Z,98470.88
2023-04-27T01:50:59.433Z,98472.09
2023-04-27T01:53:02.283Z,98466.25
2023-04-27T01:55:05.722Z,98474.13
2023-04-27T01:57:08.479Z,98479.22
2023-04-27T01:59:11.480Z,98476.81
2023-04-27T02:01:14.452Z,98477.28
2023-04-27T02:03:17.552Z,98478.41
2023-04-27T02:05:20.791Z,98476.53
2023-04-27T02:07:23.631Z,98480.53
2023-04-27T02:09:26.394Z,98483.72
2023-04-27T02:11:29.151Z,98490.75
2023-04-27T02:13:33.072Z,98484.97
2023-04-27T02:15:36.233Z,98487.38
2023-04-27T02:17:39.698Z,98496.00
2023-04-27T02:19:42.700Z,98497.59
2023-04-27T02:21:45.685Z,98504.78
2023-04-27T02:23:48.405Z,98502.81
2023-04-27T02:25:51.567Z,98503.28
2023-04-27T02:27:54.325Z,98499.34
2023-04-27T02:29:57.576Z,98501.75
2023-04-27T02:32:00.837Z,98505.75
2023-04-27T02:34:03.572Z,98499.88
2023-04-27T02:36:06.738Z,98501.13
2023-04-27T02:38:10.527Z,98501.53
2023-04-27T02:40:13.300Z,98503.59
2023-04-27T02:42:16.779Z,98505.97
2023-04-27T02:44:19.537Z,98512.31
2023-04-27T02:46:22.308Z,98528.47
2023-04-27T02:48:25.086Z,98515.50
2023-04-27T02:50:27.823Z,98517.09
2023-04-27T02:52:30.539Z,98517.44
2023-04-27T02:54:33.427Z,98528.84
2023-04-27T02:56:36.194Z,98520.56
2023-04-27T02:58:39.022Z,98517.09
2023-04-27T03:00:42.121Z,98520.28
2023-04-27T03:02:45.054Z,98514.50
2023-04-27T03:04:48.005Z,98518.94
2023-04-27T03:06:51.178Z,98511.16
2023-04-27T03:08:53.796Z,98513.22
2023-04-27T03:10:56.474Z,98522.34
2023-04-27T03:12:59.188Z,98520.03
2023-04-27T03:15:02.039Z,98527.59
2023-04-27T03:17:07.878Z,98527.06
2023-04-27T03:19:10.896Z,98523.81
2023-04-27T03:21:14.037Z,98526.84
2023-04-27T03:23:16.703Z,98533.06
2023-04-27T03:25:19.598Z,98534.50
2023-04-27T03:27:23.405Z,98540.56
2023-04-27T03:29:26.396Z,98538.81
2023-04-27T03:31:29.113Z,98537.47
2023-04-27T03:33:32.113Z,98535.78
2023-04-27T03:35:34.994Z,98532.50
2023-04-27T03:37:37.799Z,98530.47
2023-04-27T03:39:40.656Z,98533.56
2023-04-27T03:41:43.293Z,98518.63
2023-04-27T03:43:46.172Z,98523.00
2023-04-27T03:45:49.140Z,98530.19
2023-04-27T03:47:51.880Z,98535.88
2023-04-27T03:49:54.762Z,98527.00
2023-04-27T03:51:57.418Z,98531.22
2023-04-27T03:54:00.483Z,98536.34
2023-04-27T03:56:03.832Z,98528.53
2023-04-27T03:58:07.012Z,98528.25
2023-04-27T04:00:13.158Z,98532.34
2023-04-27T04:02:16.597Z,98537.41
2023-04-27T04:04:19.404Z,98529.00
2023-04-27T04:06:22.304Z,98523.44
2023-04-27T04:08:25.032Z,98523.31
2023-04-27T04:10:28.044Z,98526.69
2023-04-27T04:12:31.579Z,98517.72
2023-04-27T04:14:34.365Z,98533.97
2023-04-27T04:16:38.031Z,98527.81
2023-04-27T04:18:40.796Z,98526.81
2023-04-27T04:20:43.607Z,98534.84
2023-04-27T04:22:46.392Z,98538.91
2023-04-27T04:24:49.183Z,98535.91
2023-04-27T04:26:52.165Z,98524.53
2023-04-27T04:28:54.826Z,98532.56
2023-04-27T04:30:57.533Z,98533.06
2023-04-27T04:33:00.420Z,98535.09
2023-04-27T04:35:05.034Z,98537.50
2023-04-27T04:37:09.260Z,98526.50
2023-04-27T04:39:12.884Z,98536.72
2023-04-27T04:41:16.012Z,98537.84
2023-04-27T04:43:19.039Z,98536.31
2023-04-27T04:45:21.925Z,98527.97
2023-04-27T04:47:24.705Z,98551.66
2023-04-27T04:49:27.452Z,98536.63
2023-04-27T04:51:30.746Z,98532.25
2023-04-27T04:53:33.520Z,98531.09
2023-04-27T04:55:36.230Z,98535.53
2023-04-27T04:57:39.027Z,98539.13
2023-04-27T04:59:42.501Z,98530.47
2023-04-27T05:01:45.327Z,98536.00
2023-04-27T05:03:48.351Z,98541.13
2023-04-27T05:05:51.216Z,98530.56
2023-04-27T05:07:54.012Z,98535.31
2023-04-27T05:09:57.520Z,98541.31
2023-04-27T05:12:02.060Z,98538.59
2023-04-27T05:14:05.147Z,98551.66
2023-04-27T05:16:08.649Z,98546.09
2023-04-27T05:18:11.364Z,98552.84
2023-04-27T05:20:14.273Z,98544.16
2023-04-27T05:22:17.155Z,98542.94
2023-04-27T05:24:20.248Z,98550.78
2023-04-27T05:26:22.974Z,98547.19
2023-04-27T05:28:25.706Z,98543.63
2023-04-27T05:30:28.458Z,98548.75
2023-04-27T05:32:31.675Z,98538.84
2023-04-27T05:34:34.445Z,98556.34
2023-04-27T05:36:37.497Z,98553.59
2023-04-27T05:38:40.690Z,98545.78
2023-04-27T05:40:43.400Z,98545.88
2023-04-27T05:42:49.274Z,98556.66
2023-04-27T05:44:52.157Z,98561.13
2023-04-27T05:46:55.265Z,98569.88
2023-04-27T05:48:58.088Z,98562.78
2023-04-27T05:51:01.962Z,98554.47
2023-04-27T05:53:05.797Z,98565.13
2023-04-27T05:55:09.098Z,98561.63
2023-04-27T05:57:11.812Z,98560.81
2023-04-27T05:59:14.867Z,98558.88
2023-04-27T06:01:19.444Z,98569.19
2023-04-27T06:03:22.318Z,98570.41
2023-04-27T06:05:25.189Z,98559.00
2023-04-27T06:07:28.100Z,98558.66
2023-04-27T06:09:31.269Z,98569.38
2023-04-27T06:11:34.039Z,98577.75
2023-04-27T06:13:36.705Z,98578.53
2023-04-27T06:15:39.548Z,98568.28
2023-04-27T06:17:44.223Z,98569.50
2023-04-27T06:19:47.098Z,98559.25
2023-04-27T06:21:51.154Z,98563.22
2023-04-27T06:23:53.909Z,98577.94
2023-04-27T06:25:56.966Z,98551.44
2023-04-27T06:27:59.677Z,98573.28
2023-04-27T06:30:02.518Z,98566.59
2023-04-27T06:32:09.050Z,98569.81
2023-04-27T06:34:11.768Z,98565.91
2023-04-27T06:36:14.629Z,98569.50
2023-04-27T06:38:17.330Z,98567.09
2023-04-27T06:40:20.128Z,98570.72
2023-04-27T06:42:23.004Z,98560.44
2023-04-27T06:44:25.756Z,98570.81
2023-04-27T06:46:28.965Z,98556.19
2023-04-27T06:48:32.023Z,98565.75
2023-04-27T06:50:35.077Z,98571.31
2023-04-27T06:52:37.777Z,98568.53
2023-04-27T06:54:41.044Z,98563.78
2023-04-27T06:56:44.830Z,98559.03
2023-04-27T06:58:49.048Z,98562.25
2023-04-27T07:00:51.944Z,98568.66
2023-04-27T07:02:54.788Z,98583.78
2023-04-27T07:04:57.750Z,98576.66
2023-04-27T07:07:00.458Z,98583.44
2023-04-27T07:09:13.263Z,98579.09
2023-04-27T07:11:23.786Z,98589.44
2023-04-27T07:13:26.468Z,98584.38
2023-04-27T07:15:30.759Z,98593.53
2023-04-27T07:17:34.023Z,98601.06
2023-04-27T07:19:37.708Z,98589.56
2023-04-27T07:21:41.341Z,98601.50
2023-04-27T07:23:44.154Z,98600.31
2023-04-27T07:25:47.015Z,98599.53
2023-04-27T07:27:49.783Z,98596.75
2023-04-27T07:29:53.492Z,98610.25
2023-04-27T07:31:56.389Z,98588.00
2023-04-27T07:34:00.841Z,98596.75
2023-04-27T07:36:03.954Z,98601.50
2023-04-27T07:38:07.046Z,98617.81
2023-04-27T07:40:16.817Z,98590.38
2023-04-27T07:42:22.547Z,98604.31
2023-04-27T07:44:25.581Z,98592.38
2023-04-27T07:46:30.619Z,98605.50
2023-04-27T07:48:34.124Z,98603.91
2023-04-27T07:50:37.078Z,98606.28
2023-04-27T07:52:40.160Z,98609.06
2023-04-27T07:54:43.450Z,98594.31
2023-04-27T07:56:46.464Z,98594.28
2023-04-27T07:58:49.367Z,98605.03
2023-04-27T08:00:52.197Z,98611.34
2023-04-27T08:03:06.042Z,98603.34
2023-04-27T08:05:09.670Z,98626.03
2023-04-27T08:07:12.970Z,98607.66
2023-04-27T08:09:16.093Z,98594.91
2023-04-27T08:11:19.037Z,98633.88
2023-04-27T08:13:23.181Z,98603.66
2023-04-27T08:15:26.511Z,98621.19
2023-04-27T08:17:29.490Z,98620.81
2023-04-27T08:19:32.281Z,98607.63
2023-04-27T08:21:35.185Z,98625.59
2023-04-27T08:23:39.026Z,98622.06
2023-04-27T08:25:41.790Z,98606.63
2023-04-27T08:27:44.385Z,98607.44
2023-04-27T08:29:48.127Z,98634.88
2023-04-27T08:31:51.517Z,98614.19
2023-04-27T08:33:54.662Z,98605.88
2023-04-27T08:35:57.494Z,98622.16
2023-04-27T08:38:00.463Z,98616.63
2023-04-27T08:40:10.137Z,98605.91
2023-04-27T08:42:14.572Z,98621.41
2023-04-27T08:44:17.424Z,98626.16
2023-04-27T08:46:24.596Z,98619.00
2023-04-27T08:48:34.126Z,98612.63
2023-04-27T08:50:44.941Z,98604.66
2023-04-27T08:52:48.620Z,98609.00
2023-04-27T08:54:51.429Z,98608.56
2023-04-27T08:56:54.188Z,98620.91
2023-04-27T08:58:59.123Z,98630.84
2023-04-27T09:01:07.618Z,98629.19
2023-04-27T09:03:24.077Z,98643.50
2023-04-27T09:05:27.773Z,98606.84
2023-04-27T09:07:31.233Z,98614.03
2023-04-27T09:09:34.091Z,98608.06
2023-04-27T09:11:39.048Z,98610.84
2023-04-27T09:13:45.442Z,98596.13
2023-04-27T09:15:52.508Z,98602.88
2023-04-27T09:17:56.964Z,98629.19
2023-04-27T09:20:15.381Z,98606.13
2023-04-27T09:22:18.195Z,98607.66
2023-04-27T09:24:20.997Z,98636.31
2023-04-27T09:26:26.160Z,98615.22
2023-04-27T09:28:34.428Z,98632.38
2023-04-27T09:30:37.994Z,98607.28
2023-04-27T09:32:40.752Z,98618.69
2023-04-27T09:34:44.199Z,98624.97
2023-04-27T09:36:48.947Z,98627.31
2023-04-27T09:38:52.855Z,98623.69
2023-04-27T09:40:56.815Z,98646.38
2023-04-27T09:43:02.178Z,98632.41
2023-04-27T09:45:07.354Z,98621.13
2023-04-27T09:47:11.449Z,98634.56
2023-04-27T09:49:15.029Z,98629.34
2023-04-27T09:51:18.147Z,98648.44
2023-04-27T09:53:33.496Z,98624.03
2023-04-27T09:55:43.600Z,98632.41
2023-04-27T09:58:18.532Z,98626.38
2023-04-27T10:00:37.113Z,98628.78
2023-04-27T10:02:55.699Z,98640.84
2023-04-27T10:04:58.456Z,98638.91
2023-04-27T10:07:07.783Z,98627.69
2023-04-27T10:09:11.059Z,98631.66
2023-04-27T10:11:19.548Z,98622.03
2023-04-27T10:13:24.666Z,98637.47
2023-04-27T10:15:28.616Z,98643.38
2023-04-27T10:17:34.673Z,98620.56
2023-04-27T10:19:37.828Z,98651.91
2023-04-27T10:22:03.845Z,98636.97
2023-04-27T10:24:09.965Z,98634.75
2023-04-27T10:26:12.956Z,98641.00
2023-04-27T10:28:18.154Z,98648.56
2023-04-27T10:30:23.043Z,98638.44
2023-04-27T10:32:26.848Z,98625.88
2023-04-27T10:34:29.635Z,98645.19
2023-04-27T10:36:41.193Z,98624.25
2023-04-27T10:38:44.368Z,98650.91
2023-04-27T10:40:56.942Z,98626.44
2023-04-27T10:43:09.010Z,98632.53
2023-04-27T10:45:15.753Z,98627.38
2023-04-27T10:47:23.860Z,98657.56
2023-04-27T10:49:30.509Z,98656.31
2023-04-27T10:51:33.880Z,98641.34
2023-04-27T10:53:39.587Z,98647.31
2023-04-27T10:55:42.455Z,98640.19
2023-04-27T10:57:49.301Z,98639.97
2023-04-27T10:59:54.036Z,98663.25
2023-04-27T11:01:57.151Z,98633.75
2023-04-27T11:04:01.482Z,98645.03
2023-04-27T11:06:05.908Z,98653.06
2023-04-27T11:08:10.746Z,98673.41
2023-04-27T11:10:20.949Z,98654.06
2023-04-27T11:12:24.340Z,98647.63
2023-04-27T11:14:27.506Z,98643.50
2023-04-27T11:16:33.094Z,98655.75
2023-04-27T11:18:38.429Z,98667.25
2023-04-27T11:20:41.529Z,98648.03
2023-04-27T11:22:46.396Z,98648.31
2023-04-27T11:24:50.548Z,98653.81
2023-04-27T11:26:54.005Z,98661.00
2023-04-27T11:29:12.680Z,98675.47
2023-04-27T11:31:16.800Z,98660.72
2023-04-27T11:33:19.724Z,98656.91
2023-04-27T11:35:34.745Z,98666.53
2023-04-27T11:37:38.684Z,98648.28
2023-04-27T11:39:41.803Z,98657.56
2023-04-27T11:41:46.596Z,98647.06
2023-04-27T11:43:52.403Z,98640.78
2023-04-27T11:45:56.410Z,98664.56
2023-04-27T11:47:59.857Z,98670.97
2023-04-27T11:50:05.875Z,98675.69
2023-04-27T11:52:11.816Z,98656.84
2023-04-27T11:54:14.762Z,98647.47
2023-04-27T11:56:18.269Z,98647.97
2023-04-27T11:58:21.642Z,98649.78
2023-04-27T12:00:25.026Z,98656.78
2023-04-27T12:02:29.497Z,98668.50
2023-04-27T12:04:33.017Z,98656.31
2023-04-27T12:06:35.966Z,98672.63
2023-04-27T12:08:39.092Z,98655.69
2023-04-27T12:10:42.095Z,98655.44
2023-04-27T12:12:44.920Z,98652.94
2023-04-27T12:14:48.177Z,98648.16
2023-04-27T12:16:51.526Z,98665.97
2023-04-27T12:18:54.470Z,98673.63
2023-04-27T12:21:01.514Z,98658.13
2023-04-27T12:23:05.634Z,98656.31
2023-04-27T12:25:08.632Z,98678.03
2023-04-27T12:27:12.542Z,98661.22
2023-04-27T12:29:16.174Z,98659.06
2023-04-27T12:31:24.705Z,98642.44
2023-04-27T12:33:28.941Z,98659.50
2023-04-27T12:35:32.227Z,98663.00
2023-04-27T12:37:35.781Z,98663.00
2023-04-27T12:39:38.888Z,98660.75
2023-04-27T12:41:45.922Z,98666.63
2023-04-27T12:43:49.235Z,98663.22
2023-04-27T12:45:52.039Z,98670.31
2023-04-27T12:48:03.501Z,98662.72
2023-04-27T12:50:07.978Z,98663.47
2023-04-27T12:52:10.898Z,98669.16
2023-04-27T12:54:14.277Z,98670.19
2023-04-27T12:56:17.209Z,98671.91
2023-04-27T12:58:19.971Z,98668.72
2023-04-27T13:00:22.779Z,98669.00
2023-04-27T13:02:27.271Z,98665.63
2023-04-27T13:04:31.887Z,98674.25
2023-04-27T13:06:35.609Z,98677.53
2023-04-27T13:08:38.467Z,98671.09
2023-04-27T13:10:42.668Z,98674.34
2023-04-27T13:12:46.129Z,98683.91
2023-04-27T13:14:48.812Z,98683.00
2023-04-27T13:16:51.756Z,98679.44
2023-04-27T13:18:55.679Z,98694.34
2023-04-27T13:20:58.804Z,98691.84
2023-04-27T13:23:01.898Z,98694.28
2023-04-27T13:25:06.165Z,98706.66
2023-04-27T13:27:08.968Z,98708.88
2023-04-27T13:29:11.647Z,98691.09
2023-04-27T13:31:14.438Z,98704.69
2023-04-27T13:33:23.404Z,98697.44
2023-04-27T13:35:26.707Z,98699.47
2023-04-27T13:37:29.965Z,98699.13
2023-04-27T13:39:33.190Z,98689.47
2023-04-27T13:41:36.359Z,98698.97
2023-04-27T13:43:39.081Z,98700.44
2023-04-27T13:45:42.784Z,98716.00
2023-04-27T13:47:45.737Z,98705.06
2023-04-27T13:49:48.500Z,98709.56
2023-04-27T13:51:51.265Z,98711.22
2023-04-27T13:53:53.976Z,98715.59
2023-04-27T13:55:59.462Z,98720.09
2023-04-27T13:58:02.964Z,98722.13
2023-04-27T14:00:12.710Z,98721.84
2023-04-27T14:02:16.244Z,98724.31
2023-04-27T14:04:19.074Z,98736.41
2023-04-27T14:06:21.860Z,98734.22
2023-04-27T14:08:25.743Z,98725.25
2023-04-27T14:10:29.160Z,98727.91
2023-04-27T14:12:33.097Z,98735.91
2023-04-27T14:14:37.322Z,98734.94
2023-04-27T14:16:40.901Z,98733.22
2023-04-27T14:18:44.199Z,98739.75
2023-04-27T14:20:47.084Z,98731.94
2023-04-27T14:22:49.904Z,98737.13
2023-04-27T14:24:52.671Z,98743.34
2023-04-27T14:26:55.626Z,98737.31
2023-04-27T14:28:59.078Z,98735.66
2023-04-27T14:31:01.908Z,98748.28
2023-04-27T14:33:04.805Z,98745.56
2023-04-27T14:35:20.926Z,98755.94
2023-04-27T14:37:23.699Z,98745.06
2023-04-27T14:39:28.235Z,98751.19
2023-04-27T14:41:30.938Z,98749.81
2023-04-27T14:43:33.824Z,98755.25
2023-04-27T14:45:50.368Z,98763.97
2023-04-27T14:47:55.477Z,98762.38
2023-04-27T14:49:58.268Z,98763.91
2023-04-27T14:52:04.233Z,98772.13
2023-04-27T14:54:08.238Z,98766.91
2023-04-27T14:56:11.893Z,98757.94
2023-04-27T14:58:15.679Z,98782.94
2023-04-27T15:00:18.806Z,98772.72
2023-04-27T15:02:21.822Z,98779.13
2023-04-27T15:04:24.686Z,98776.72
2023-04-27T15:06:28.877Z,98777.16
2023-04-27T15:08:33.553Z,98796.22
2023-04-27T15:10:37.833Z,98787.94
2023-04-27T15:12:40.969Z,98794.81
2023-04-27T15:14:43.832Z,98799.22
2023-04-27T15:16:46.522Z,98793.34
2023-04-27T15:18:49.245Z,98801.84
2023-04-27T15:20:56.097Z,98798.44
2023-04-27T15:22:58.830Z,98795.41
2023-04-27T15:25:01.504Z,98796.38
2023-04-27T15:27:04.378Z,98797.22
2023-04-27T15:29:07.461Z,98814.44
2023-04-27T15:31:10.229Z,98810.53
2023-04-27T15:33:14.103Z,98817.75
2023-04-27T15:35:16.961Z,98831.34
2023-04-27T15:37:19.695Z,98826.59
2023-04-27T15:39:22.537Z,98826.63
2023-04-27T15:41:25.458Z,98827.03
2023-04-27T15:43:28.340Z,98826.63
2023-04-27T15:45:33.977Z,98835.75
2023-04-27T15:47:36.741Z,98836.53
2023-04-27T15:49:53.446Z,98830.94
2023-04-27T15:51:59.330Z,98838.81
2023-04-27T15:54:02.279Z,98841.53
2023-04-27T15:56:05.339Z,98841.47
2023-04-27T15:58:08.107Z,98844.59
2023-04-27T16:00:12.102Z,98834.97
2023-04-27T16:02:15.922Z,98837.34
2023-04-27T16:04:19.069Z,98841.25
2023-04-27T16:06:21.744Z,98851.09
2023-04-27T16:08:26.996Z,98841.88
2023-04-27T16:10:29.760Z,98848.59
2023-04-27T16:12:32.686Z,98848.19
2023-04-27T16:14:35.859Z,98850.53
2023-04-27T16:16:39.009Z,98849.69
2023-04-27T16:18:41.860Z,98854.34
2023-04-27T16:20:44.533Z,98853.13
2023-04-27T16:22:47.254Z,98856.22
2023-04-27T16:24:50.021Z,98855.75
2023-04-27T16:26:52.714Z,98860.44
2023-04-27T16:28:56.760Z,98859.19
2023-04-27T16:30:59.492Z,98864.69
2023-04-27T16:33:02.296Z,98868.59
2023-04-27T16:35:05.440Z,98861.41
2023-04-27T16:37:08.906Z,98865.69
2023-04-27T16:39:11.962Z,98873.59
2023-04-27T16:41:14.809Z,98873.97
2023-04-27T16:43:17.543Z,98877.84
2023-04-27T16:45:20.992Z,98878.31
2023-04-27T16:47:24.193Z,98880.97
2023-04-27T16:49:35.096Z,98892.03
2023-04-27T16:51:38.073Z,98883.63
2023-04-27T16:53:41.521Z,98889.91
2023-04-27T16:55:44.302Z,98886.31
2023-04-27T16:57:48.032Z,98887.03
2023-04-27T16:59:50.844Z,98891.38
2023-04-27T17:01:53.501Z,98906.06
2023-04-27T17:03:57.979Z,98898.47
2023-04-27T17:06:00.772Z,98905.56
2023-04-27T17:08:05.040Z,98910.25
2023-04-27T17:10:09.552Z,98909.03
2023-04-27T17:12:14.976Z,98916.13
2023-04-27T17:14:19.754Z,98911.72
2023-04-27T17:16:23.569Z,98911.63
2023-04-27T17:18:26.658Z,98921.91
2023-04-27T17:20:29.362Z,98917.13
2023-04-27T17:22:33.110Z,98925.81
2023-04-27T17:24:35.921Z,98925.75
2023-04-27T17:26:39.243Z,98920.59
2023-04-27T17:28:41.899Z,98910.56
2023-04-27T17:30:44.714Z,98927.25
2023-04-27T17:32:47.493Z,98927.19
2023-04-27T17:34:50.580Z,98923.50
2023-04-27T17:36:53.365Z,98927.75
2023-04-27T17:38:56.299Z,98931.66
2023-04-27T17:40:59.178Z,98925.28
2023-04-27T17:43:01.956Z,98921.28
2023-04-27T17:45:04.965Z,98923.97
2023-04-27T17:47:08.589Z,98930.69
2023-04-27T17:49:11.554Z,98937.81
2023-04-27T17:51:15.339Z,98925.88
2023-04-27T17:53:18.268Z,98922.31
2023-04-27T17:55:21.816Z,98923.03
2023-04-27T17:57:24.650Z,98924.94
2023-04-27T17:59:27.832Z,98925.69
2023-04-27T18:01:31.260Z,98931.16
2023-04-27T18:03:34.163Z,98931.47
2023-04-27T18:05:37.256Z,98938.91
2023-04-27T18:07:39.972Z,98930.09
2023-04-27T18:09:42.683Z,98931.28
2023-04-27T18:11:45.596Z,98939.53
2023-04-27T18:13:48.409Z,98935.09
2023-04-27T18:15:51.550Z,98940.94
2023-04-27T18:17:55.101Z,98938.50
2023-04-27T18:20:08.110Z,98934.47
2023-04-27T18:22:12.508Z,98936.41
2023-04-27T18:24:15.216Z,98942.34
2023-04-27T18:26:18.036Z,98938.78
2023-04-27T18:28:20.848Z,98935.13
2023-04-27T18:30:23.774Z,98943.00
2023-04-27T18:32:26.905Z,98936.22
2023-04-27T18:34:29.626Z,98935.34
2023-04-27T18:36:32.613Z,98930.56
2023-04-27T18:38:36.405Z,98937.63
2023-04-27T18:40:39.293Z,98934.78
2023-04-27T18:42:42.263Z,98943.03
2023-04-27T18:44:45.382Z,98948.09
2023-04-27T18:46:48.183Z,98937.75
2023-04-27T18:48:50.903Z,98943.22
2023-04-27T18:50:53.667Z,98938.44
2023-04-27T18:52:56.660Z,98939.53
2023-04-27T18:54:59.549Z,98942.59
2023-04-27T18:57:04.499Z,98938.16
2023-04-27T18:59:07.243Z,98936.03
2023-04-27T19:01:11.031Z,98949.84
2023-04-27T19:03:14.426Z,98943.44
2023-04-27T19:05:17.395Z,98946.53
2023-04-27T19:07:20.199Z,98937.78
2023-04-27T19:09:22.971Z,98946.47
2023-04-27T19:11:26.157Z,98940.50
2023-04-27T19:13:29.116Z,98940.03
2023-04-27T19:15:32.077Z,98953.50
2023-04-27T19:17:35.306Z,98943.16
2023-04-27T19:19:38.326Z,98944.78
2023-04-27T19:21:42.181Z,98947.09
2023-04-27T19:23:45.687Z,98943.53
2023-04-27T19:25:48.503Z,98950.59
2023-04-27T19:27:51.748Z,98956.81
2023-04-27T19:29:57.465Z,98956.03
2023-04-27T19:32:02.363Z,98954.06
2023-04-27T19:34:05.120Z,98950.84
2023-04-27T19:36:08.169Z,98943.75
2023-04-27T19:38:11.406Z,98952.38
2023-04-27T19:40:15.097Z,98950.00
2023-04-27T19:42:17.890Z,98951.53
2023-04-27T19:44:20.682Z,98955.88
2023-04-27T19:46:23.410Z,98958.97
2023-04-27T19:48:26.563Z,98964.44
2023-04-27T19:50:29.334Z,98958.47
2023-04-27T19:52:32.115Z,98963.94
2023-04-27T19:54:38.454Z,98960.72
2023-04-27T19:56:41.486Z,98964.47
2023-04-27T19:58:44.240Z,98968.31
2023-04-27T20:00:47.305Z,98971.25
2023-04-27T20:02:53.813Z,98967.16
2023-04-27T20:04:57.877Z,98968.97
2023-04-27T20:07:02.837Z,98965.19
2023-04-27T20:09:07.171Z,98976.63
2023-04-27T20:11:09.945Z,98974.13
2023-04-27T20:13:12.799Z,98969.22
2023-04-27T20:15:15.782Z,98974.63
2023-04-27T20:17:18.595Z,98972.47
2023-04-27T20:19:22.684Z,98969.19
2023-04-27T20:21:25.468Z,98972.75
2023-04-27T20:23:28.276Z,98973.81
2023-04-27T20:25:31.235Z,98987.63
2023-04-27T20:27:35.720Z,98984.41
2023-04-27T20:29:38.585Z,98987.41
2023-04-27T20:31:41.568Z,98987.41
2023-04-27T20:33:44.314Z,98997.66
2023-04-27T20:35:47.474Z,98991.69
2023-04-27T20:37:50.328Z,99003.75
2023-04-27T20:39:54.146Z,99005.59
2023-04-27T20:41:57.164Z,99004.81
2023-04-27T20:44:00.696Z,99016.63
2023-04-27T20:46:04.149Z,99009.88
2023-04-27T20:48:09.432Z,99019.66
2023-04-27T20:50:12.258Z,99015.97
2023-04-27T20:52:15.251Z,99019.56
2023-04-27T20:54:17.960Z,99021.06
2023-04-27T20:56:20.845Z,99024.50
2023-04-27T20:58:24.004Z,99023.72
2023-04-27T21:00:27.020Z,99026.00
2023-04-27T21:02:29.986Z,99024.44
2023-04-27T21:04:32.901Z,99032.59
2023-04-27T21:06:35.865Z,99028.56
2023-04-27T21:08:38.790Z,99030.41
2023-04-27T21:10:41.751Z,99034.69
2023-04-27T21:12:44.593Z,99032.28
2023-04-27T21:14:47.284Z,99039.72
2023-04-27T21:16:50.115Z,99030.22
2023-04-27T21:18:52.869Z,99038.47
2023-04-27T21:20:55.741Z,99036.09
2023-04-27T21:22:58.468Z,99037.22
2023-04-27T21:25:01.375Z,99037.94
2023-04-27T21:27:07.250Z,99032.28
2023-04-27T21:29:09.942Z,99042.44
2023-04-27T21:31:12.749Z,99038.84
2023-04-27T21:33:15.716Z,99043.47
2023-04-27T21:35:18.647Z,99040.25
2023-04-27T21:37:21.422Z,99043.00
2023-04-27T21:39:24.086Z,99046.56
2023-04-27T21:41:26.966Z,99043.34
2023-04-27T21:43:29.714Z,99037.03
2023-04-27T21:45:32.614Z,99045.66
2023-04-27T21:47:35.323Z,99047.94
2023-04-27T21:49:38.045Z,99052.56
2023-04-27T21:51:41.032Z,99050.16
2023-04-27T21:53:43.830Z,99051.31
2023-04-27T21:55:46.740Z,99052.34
2023-04-27T21:57:49.484Z,99056.59
2023-04-27T21:59:52.153Z,99049.00
2023-04-27T22:01:56.507Z,99047.28
2023-04-27T22:03:59.708Z,99053.50
2023-04-27T22:06:02.654Z,99056.94
2023-04-27T22:08:05.690Z,99049.34
2023-04-27T22:10:08.895Z,99046.59
2023-04-27T22:12:11.947Z,99043.41
2023-04-27T22:14:15.013Z,99043.28
2023-04-27T22:16:18.020Z,99044.78
2023-04-27T22:18:20.846Z,99049.81
2023-04-27T22:20:23.733Z,99048.88
2023-04-27T22:22:26.483Z,99038.56
2023-04-27T22:24:29.256Z,99043.28
2023-04-27T22:26:32.102Z,99044.06
2023-04-27T22:28:34.849Z,99046.84
2023-04-27T22:30:38.069Z,99041.31
2023-04-27T22:32:41.372Z,99042.81
2023-04-27T22:34:44.281Z,99042.47
2023-04-27T22:36:47.040Z,99049.13
2023-04-27T22:38:50.992Z,99051.06
2023-04-27T22:40:53.765Z,99048.66
2023-04-27T22:42:56.723Z,99049.03
2023-04-27T22:44:59.556Z,99049.81
2023-04-27T22:47:02.959Z,99050.16
2023-04-27T22:49:05.823Z,99046.13
2023-04-27T22:51:10.197Z,99048.44
2023-04-27T22:53:12.961Z,99051.88
2023-04-27T22:55:16.382Z,99046.59
2023-04-27T22:57:19.412Z,99052.75
2023-04-27T22:59:23.383Z,99050.22
2023-04-27T23:01:26.338Z,99051.38
2023-04-27T23:03:29.359Z,99047.22
2023-04-27T23:05:32.997Z,99053.97
2023-04-27T23:07:36.340Z,99060.97
2023-04-27T23:09:39.288Z,99058.91
2023-04-27T23:11:42.037Z,99057.28
2023-04-27T23:13:48.358Z,99062.78
2023-04-27T23:15:51.108Z,99076.13
2023-04-27T23:17:54.148Z,99070.16
2023-04-27T23:20:01.418Z,99063.38
2023-04-27T23:22:07.035Z,99066.47
2023-04-27T23:24:09.999Z,99065.66
2023-04-27T23:26:16.478Z,99070.22
2023-04-27T23:28:19.205Z,99072.84
2023-04-27T23:30:22.679Z,99069.66
2023-04-27T23:32:25.645Z,99069.97
2023-04-27T23:34:28.446Z,99068.72
2023-04-27T23:36:31.217Z,99069.72
2023-04-27T23:38:33.992Z,99071.69
2023-04-27T23:40:37.405Z,99073.97
2023-04-27T23:42:40.188Z,99072.69
2023-04-27T23:44:43.606Z,99071.41
2023-04-27T23:46:46.406Z,99074.50
2023-04-27T23:48:49.086Z,99065.44
2023-04-27T23:51:02.441Z,99073.69
2023-04-27T23:53:05.403Z,99065.78
2023-04-27T23:55:08.657Z,99070.94
2023-04-27T23:57:11.567Z,99068.19
2023-04-27T23:59:15.195Z,99080.13
